Jacky L O'neal — WDG3892 — position and weather

sailwx.info

Track history (hours):
 
Tides and Currents Weather Stations Pressure Air Temp Water Temp Dewpoint Dewpoint Depression Visibility Wind Speed Wind Dir Waves Ship Positions

Jacky L O'neal

Owner: American Commercial Lines LLC, Jeffersonville, IN. More information available from US FCC via Universal Licensing System and Coast Guard Vessel Documentation Center.

Last reported at 2017-Jun-26 14:39 UTC. Time now 2017-Jun-29 02:23 UTC.
Position N 32°41' W 091°06'.

Length 55 m; draft 2.9 m.

Type: Tow > 200 m length. MMSI: 367530760.

Date/timePositionNaut miles runAvg speedWind from/ knotsBaromVisibWave heightAir tempDewpointWater temp
2017-Jun-26 14:39N 32°41' W 091°06'1 4.8
2017-Jun-26 14:30N 32°40' W 091°07'4 3.9
2017-Jun-26 13:30N 32°37' W 091°09'2 4.4
2017-Jun-26 13:01N 32°35' W 091°08'2 3.0
2017-Jun-26 12:31N 32°34' W 091°06'2 3.9
2017-Jun-26 12:01N 32°32' W 091°06'2 4.4
2017-Jun-26 11:31N 32°30' W 091°07'2 4.3
2017-Jun-26 11:01N 32°28' W 091°06'2 4.4
2017-Jun-26 10:31N 32°27' W 091°04'2 4.5
2017-Jun-26 10:00N 32°26' W 091°02'2 4.3
2017-Jun-26 09:31N 32°25' W 090°60'2 3.8
2017-Jun-26 09:01N 32°23' W 090°60'2 3.7
2017-Jun-26 08:31N 32°21' W 090°59'2 4.2
2017-Jun-26 08:01N 32°21' W 090°57'2 4.2
2017-Jun-26 07:31N 32°20' W 090°55'2 3.2
2017-Jun-26 07:01N 32°18' W 090°55'2 4.6
2017-Jun-26 06:31N 32°17' W 090°57'2 4.0
2017-Jun-26 06:00N 32°16' W 090°58'2 4.6
2017-Jun-26 05:31N 32°13' W 090°59'2 4.5
2017-Jun-26 05:01N 32°11' W 090°60'2 4.2
2017-Jun-26 04:31N 32°09' W 091°00'2 4.1
2017-Jun-26 04:00N 32°07' W 091°02'2 3.8
2017-Jun-26 03:29N 32°08' W 091°04'2 4.6
2017-Jun-26 03:01N 32°08' W 091°06'2 4.4
2017-Jun-26 02:30N 32°06' W 091°05'2 4.9
2017-Jun-26 02:01N 32°04' W 091°04'2 4.6
2017-Jun-26 01:31N 32°01' W 091°04'6 4.2
2017-Jun-26 00:01N 31°58' W 091°11'0 4.6
2017-Jun-26 00:00N 31°58' W 091°11'11 3.7
2017-Jun-25 20:57N 31°51' W 091°21'9 3.8
2017-Jun-25 18:40N 31°42' W 091°24'  
2017-Jun-22 06:20N 31°57' W 091°11'3 8.4
2017-Jun-22 06:00N 31°59' W 091°09'4 8.7
2017-Jun-22 05:31N 32°01' W 091°04'4 8.2
2017-Jun-22 05:01N 32°05' W 091°05'3 5.1
2017-Jun-22 04:31N 32°08' W 091°06'1 2.7
2017-Jun-22 04:01N 32°08' W 091°05'4 7.7
2017-Jun-22 03:30N 32°08' W 091°00'5 9.6
2017-Jun-22 03:01N 32°13' W 090°59'4 8.5
2017-Jun-22 02:31N 32°17' W 090°57'4 7.7
2017-Jun-22 02:01N 32°20' W 090°54'5 9.1
2017-Jun-22 01:30N 32°21' W 090°59'4 7.9
2017-Jun-22 01:01N 32°25' W 090°60'5 9.2
2017-Jun-22 00:31N 32°27' W 091°05'5 8.4
2017-Jun-21 23:51N 32°32' W 091°06'3 8.9
2017-Jun-21 23:31N 32°35' W 091°08'5 7.8
2017-Jun-21 22:51N 32°40' W 091°08'5 7.9
2017-Jun-21 22:14N 32°43' W 091°03'5 7.0
2017-Jun-21 21:35N 32°44' W 091°09'  
Track history (hours):
 
Tides and Currents Weather Stations Pressure Air Temp Water Temp Dewpoint Dewpoint Depression Visibility Wind Speed Wind Dir Waves Ship Positions

Jacky L O'neal

Owner: American Commercial Lines LLC, Jeffersonville, IN. More information available from US FCC via Universal Licensing System and Coast Guard Vessel Documentation Center.

Last reported at 2017-Jun-26 14:39 UTC. Time now 2017-Jun-29 02:23 UTC.
Position N 32°41' W 091°06'.

Length 55 m; draft 2.9 m.

Type: Tow > 200 m length. MMSI: 367530760.

Date/timePositionNaut miles runAvg speedWind from/ knotsBaromVisibWave heightAir tempDewpointWater temp
2017-Jun-26 14:39N 32°41' W 091°06'1 4.8
2017-Jun-26 14:30N 32°40' W 091°07'4 3.9
2017-Jun-26 13:30N 32°37' W 091°09'2 4.4
2017-Jun-26 13:01N 32°35' W 091°08'2 3.0
2017-Jun-26 12:31N 32°34' W 091°06'2 3.9
2017-Jun-26 12:01N 32°32' W 091°06'2 4.4
2017-Jun-26 11:31N 32°30' W 091°07'2 4.3
2017-Jun-26 11:01N 32°28' W 091°06'2 4.4
2017-Jun-26 10:31N 32°27' W 091°04'2 4.5
2017-Jun-26 10:00N 32°26' W 091°02'2 4.3
2017-Jun-26 09:31N 32°25' W 090°60'2 3.8
2017-Jun-26 09:01N 32°23' W 090°60'2 3.7
2017-Jun-26 08:31N 32°21' W 090°59'2 4.2
2017-Jun-26 08:01N 32°21' W 090°57'2 4.2
2017-Jun-26 07:31N 32°20' W 090°55'2 3.2
2017-Jun-26 07:01N 32°18' W 090°55'2 4.6
2017-Jun-26 06:31N 32°17' W 090°57'2 4.0
2017-Jun-26 06:00N 32°16' W 090°58'2 4.6
2017-Jun-26 05:31N 32°13' W 090°59'2 4.5
2017-Jun-26 05:01N 32°11' W 090°60'2 4.2
2017-Jun-26 04:31N 32°09' W 091°00'2 4.1
2017-Jun-26 04:00N 32°07' W 091°02'2 3.8
2017-Jun-26 03:29N 32°08' W 091°04'2 4.6
2017-Jun-26 03:01N 32°08' W 091°06'2 4.4
2017-Jun-26 02:30N 32°06' W 091°05'2 4.9
2017-Jun-26 02:01N 32°04' W 091°04'2 4.6
2017-Jun-26 01:31N 32°01' W 091°04'6 4.2
2017-Jun-26 00:01N 31°58' W 091°11'0 4.6
2017-Jun-26 00:00N 31°58' W 091°11'11 3.7
2017-Jun-25 20:57N 31°51' W 091°21'9 3.8
2017-Jun-25 18:40N 31°42' W 091°24'  
2017-Jun-22 06:20N 31°57' W 091°11'3 8.4
2017-Jun-22 06:00N 31°59' W 091°09'4 8.7
2017-Jun-22 05:31N 32°01' W 091°04'4 8.2
2017-Jun-22 05:01N 32°05' W 091°05'3 5.1
2017-Jun-22 04:31N 32°08' W 091°06'1 2.7
2017-Jun-22 04:01N 32°08' W 091°05'4 7.7
2017-Jun-22 03:30N 32°08' W 091°00'5 9.6
2017-Jun-22 03:01N 32°13' W 090°59'4 8.5
2017-Jun-22 02:31N 32°17' W 090°57'4 7.7
2017-Jun-22 02:01N 32°20' W 090°54'5 9.1
2017-Jun-22 01:30N 32°21' W 090°59'4 7.9
2017-Jun-22 01:01N 32°25' W 090°60'5 9.2
2017-Jun-22 00:31N 32°27' W 091°05'5 8.4
2017-Jun-21 23:51N 32°32' W 091°06'3 8.9
2017-Jun-21 23:31N 32°35' W 091°08'5 7.8
2017-Jun-21 22:51N 32°40' W 091°08'5 7.9
2017-Jun-21 22:14N 32°43' W 091°03'5 7.0
2017-Jun-21 21:35N 32°44' W 091°09'  

Dump ship's entire track history